Ns Champion — A8FD9 — position and weather

sailwx.info

Track history (hours):
 
Tides and Currents Weather Stations Pressure Air Temp Water Temp Dewpoint Dewpoint Depression Visibility Wind Speed Wind Dir Waves Ship Positions

Ns Champion

Last reported at 2018-Jun-22 21:02 UTC. Time now 2018-Jun-23 00:57 UTC.
Position N 29°09' W 094°33'.

Length 244 m; draft 8 m.

Type: Ship. MMSI: 636012384.

Date/timePositionNaut miles runAvg speedWind from/ knotsBaromVisibWave heightAir tempDewpointWater temp
2018-Jun-22 21:02N 29°09' W 094°33'1 4.0
2018-Jun-22 20:53N 29°09' W 094°32'2 5.0
2018-Jun-22 20:28N 29°07' W 094°31'510.7
2018-Jun-22 20:00N 29°04' W 094°27'611.9
2018-Jun-22 19:31N 28°58' W 094°25'713.7
2018-Jun-22 18:59N 28°51' W 094°25'713.8
2018-Jun-22 18:28N 28°44' W 094°25'713.8
2018-Jun-22 17:59N 28°37' W 094°25'6 1.1
2018-Jun-22 12:39N 28°32' W 094°21'1 5.4
2018-Jun-22 12:30N 28°31' W 094°21'4 0.3
2018-Jun-21 23:11N 28°28' W 094°23'0 0.0
2018-Jun-21 22:44N 28°28' W 094°23'1 0.2
2018-Jun-21 14:52N 28°29' W 094°22'2 4.1
2018-Jun-21 14:30N 28°29' W 094°20'2 4.5
2018-Jun-21 13:59N 28°29' W 094°17'3 6.2
2018-Jun-21 13:30N 28°29' W 094°14'4 7.5
2018-Jun-21 13:00N 28°31' W 094°11'2 1.2
2018-Jun-21 11:20N 28°31' W 094°09'  
2018-Jun-17 22:25N 29°10' W 094°29'511.4
2018-Jun-17 22:00N 29°14' W 094°33'611.2
2018-Jun-17 21:30N 29°18' W 094°38'510.3
2018-Jun-17 21:00N 29°21' W 094°43'510.2
2018-Jun-17 20:30N 29°22' W 094°48'510.7
2018-Jun-17 20:00N 29°27' W 094°51'510.5
2018-Jun-17 19:30N 29°32' W 094°54'5 9.8
2018-Jun-17 19:00N 29°36' W 094°57'5 9.1
2018-Jun-17 18:30N 29°40' W 094°59'3 6.9
2018-Jun-17 18:00N 29°43' W 095°01'0 0.0
2018-Jun-15 20:16N 29°42' W 095°01'3 8.9
2018-Jun-15 19:58N 29°40' W 094°59'510.7
2018-Jun-15 19:30N 29°36' W 094°57'611.2
2018-Jun-15 19:00N 29°31' W 094°53'612.1
2018-Jun-15 18:30N 29°26' W 094°50'612.2
2018-Jun-15 18:00N 29°21' W 094°46'2 2.5
2018-Jun-15 17:01N 29°21' W 094°43'0 0.5
2018-Jun-15 16:58N 29°21' W 094°43'0 0.0
2018-Jun-15 16:28N 29°21' W 094°43'0 0.0
2018-Jun-15 14:28N 29°21' W 094°43'0 0.0
2018-Jun-15 13:55N 29°21' W 094°43'0 0.0
2018-Jun-15 13:28N 29°21' W 094°43'0 0.0
2018-Jun-15 12:52N 29°21' W 094°43'0 0.0
2018-Jun-15 12:28N 29°21' W 094°43'0 0.0
2018-Jun-15 11:58N 29°21' W 094°43'0 0.0
2018-Jun-15 11:28N 29°21' W 094°43'0 0.0
2018-Jun-15 10:25N 29°21' W 094°43'0 0.0
2018-Jun-15 09:55N 29°21' W 094°43'0 0.0
2018-Jun-15 09:28N 29°21' W 094°43'0 0.1
2018-Jun-15 08:55N 29°21' W 094°43'0 0.1
2018-Jun-15 08:28N 29°21' W 094°43'0 0.1
2018-Jun-15 07:49N 29°21' W 094°43'0 0.0
2018-Jun-15 05:16N 29°21' W 094°43'0 0.0
2018-Jun-15 01:10N 29°21' W 094°43'0 0.0
2018-Jun-14 21:07N 29°21' W 094°43'0 0.4
2018-Jun-14 20:35N 29°21' W 094°43'0 3.5
2018-Jun-14 20:30N 29°21' W 094°44'3 6.5
2018-Jun-14 20:00N 29°21' W 094°47'611.5
2018-Jun-14 19:31N 29°26' W 094°50'611.4
2018-Jun-14 19:00N 29°31' W 094°53'611.1
2018-Jun-14 18:30N 29°36' W 094°57'510.6
2018-Jun-14 18:00N 29°41' W 094°59'  
Track history (hours):
 
Tides and Currents Weather Stations Pressure Air Temp Water Temp Dewpoint Dewpoint Depression Visibility Wind Speed Wind Dir Waves Ship Positions

Ns Champion

Last reported at 2018-Jun-22 21:02 UTC. Time now 2018-Jun-23 00:57 UTC.
Position N 29°09' W 094°33'.

Length 244 m; draft 8 m.

Type: Ship. MMSI: 636012384.

Date/timePositionNaut miles runAvg speedWind from/ knotsBaromVisibWave heightAir tempDewpointWater temp
2018-Jun-22 21:02N 29°09' W 094°33'1 4.0
2018-Jun-22 20:53N 29°09' W 094°32'2 5.0
2018-Jun-22 20:28N 29°07' W 094°31'510.7
2018-Jun-22 20:00N 29°04' W 094°27'611.9
2018-Jun-22 19:31N 28°58' W 094°25'713.7
2018-Jun-22 18:59N 28°51' W 094°25'713.8
2018-Jun-22 18:28N 28°44' W 094°25'713.8
2018-Jun-22 17:59N 28°37' W 094°25'6 1.1
2018-Jun-22 12:39N 28°32' W 094°21'1 5.4
2018-Jun-22 12:30N 28°31' W 094°21'4 0.3
2018-Jun-21 23:11N 28°28' W 094°23'0 0.0
2018-Jun-21 22:44N 28°28' W 094°23'1 0.2
2018-Jun-21 14:52N 28°29' W 094°22'2 4.1
2018-Jun-21 14:30N 28°29' W 094°20'2 4.5
2018-Jun-21 13:59N 28°29' W 094°17'3 6.2
2018-Jun-21 13:30N 28°29' W 094°14'4 7.5
2018-Jun-21 13:00N 28°31' W 094°11'2 1.2
2018-Jun-21 11:20N 28°31' W 094°09'  
2018-Jun-17 22:25N 29°10' W 094°29'511.4
2018-Jun-17 22:00N 29°14' W 094°33'611.2
2018-Jun-17 21:30N 29°18' W 094°38'510.3
2018-Jun-17 21:00N 29°21' W 094°43'510.2
2018-Jun-17 20:30N 29°22' W 094°48'510.7
2018-Jun-17 20:00N 29°27' W 094°51'510.5
2018-Jun-17 19:30N 29°32' W 094°54'5 9.8
2018-Jun-17 19:00N 29°36' W 094°57'5 9.1
2018-Jun-17 18:30N 29°40' W 094°59'3 6.9
2018-Jun-17 18:00N 29°43' W 095°01'0 0.0
2018-Jun-15 20:16N 29°42' W 095°01'3 8.9
2018-Jun-15 19:58N 29°40' W 094°59'510.7
2018-Jun-15 19:30N 29°36' W 094°57'611.2
2018-Jun-15 19:00N 29°31' W 094°53'612.1
2018-Jun-15 18:30N 29°26' W 094°50'612.2
2018-Jun-15 18:00N 29°21' W 094°46'2 2.5
2018-Jun-15 17:01N 29°21' W 094°43'0 0.5
2018-Jun-15 16:58N 29°21' W 094°43'0 0.0
2018-Jun-15 16:28N 29°21' W 094°43'0 0.0
2018-Jun-15 14:28N 29°21' W 094°43'0 0.0
2018-Jun-15 13:55N 29°21' W 094°43'0 0.0
2018-Jun-15 13:28N 29°21' W 094°43'0 0.0
2018-Jun-15 12:52N 29°21' W 094°43'0 0.0
2018-Jun-15 12:28N 29°21' W 094°43'0 0.0
2018-Jun-15 11:58N 29°21' W 094°43'0 0.0
2018-Jun-15 11:28N 29°21' W 094°43'0 0.0
2018-Jun-15 10:25N 29°21' W 094°43'0 0.0
2018-Jun-15 09:55N 29°21' W 094°43'0 0.0
2018-Jun-15 09:28N 29°21' W 094°43'0 0.1
2018-Jun-15 08:55N 29°21' W 094°43'0 0.1
2018-Jun-15 08:28N 29°21' W 094°43'0 0.1
2018-Jun-15 07:49N 29°21' W 094°43'0 0.0
2018-Jun-15 05:16N 29°21' W 094°43'0 0.0
2018-Jun-15 01:10N 29°21' W 094°43'0 0.0
2018-Jun-14 21:07N 29°21' W 094°43'0 0.4
2018-Jun-14 20:35N 29°21' W 094°43'0 3.5
2018-Jun-14 20:30N 29°21' W 094°44'3 6.5
2018-Jun-14 20:00N 29°21' W 094°47'611.5
2018-Jun-14 19:31N 29°26' W 094°50'611.4
2018-Jun-14 19:00N 29°31' W 094°53'611.1
2018-Jun-14 18:30N 29°36' W 094°57'510.6
2018-Jun-14 18:00N 29°41' W 094°59'  

Dump ship's entire track history